sensor_id;sensor_type;location;lat;lon;timestamp;P1;durP1;ratioP1;P2;durP2;ratioP2
79414;SDS011;68864;44.972;19.612;2023-05-27T00:00:50;7.45;;;6.47;;
79414;SDS011;68864;44.972;19.612;2023-05-27T00:03:16;8.45;;;5.32;;
79414;SDS011;68864;44.972;19.612;2023-05-27T00:05:43;5.88;;;4.57;;
79414;SDS011;68864;44.972;19.612;2023-05-27T00:08:11;7.35;;;6.57;;
79414;SDS011;68864;44.972;19.612;2023-05-27T00:10:38;8.05;;;6.53;;
79414;SDS011;68864;44.972;19.612;2023-05-27T00:13:04;4.38;;;1.30;;
79414;SDS011;68864;44.972;19.612;2023-05-27T00:15:31;9.25;;;5.38;;
79414;SDS011;68864;44.972;19.612;2023-05-27T00:17:58;7.10;;;5.07;;
79414;SDS011;68864;44.972;19.612;2023-05-27T00:20:27;10.32;;;5.03;;
79414;SDS011;68864;44.972;19.612;2023-05-27T00:22:55;6.22;;;5.10;;
79414;SDS011;68864;44.972;19.612;2023-05-27T00:25:25;6.63;;;5.95;;
79414;SDS011;68864;44.972;19.612;2023-05-27T00:27:53;5.53;;;4.03;;
79414;SDS011;68864;44.972;19.612;2023-05-27T00:30:20;7.63;;;5.03;;
79414;SDS011;68864;44.972;19.612;2023-05-27T00:32:47;6.65;;;5.95;;
79414;SDS011;68864;44.972;19.612;2023-05-27T00:35:14;7.47;;;5.47;;
79414;SDS011;68864;44.972;19.612;2023-05-27T00:37:41;6.43;;;5.55;;
79414;SDS011;68864;44.972;19.612;2023-05-27T00:40:09;6.38;;;4.47;;
79414;SDS011;68864;44.972;19.612;2023-05-27T00:42:38;6.72;;;5.25;;
79414;SDS011;68864;44.972;19.612;2023-05-27T00:45:05;7.43;;;5.22;;
79414;SDS011;68864;44.972;19.612;2023-05-27T00:47:33;6.70;;;5.07;;
79414;SDS011;68864;44.972;19.612;2023-05-27T00:50:00;6.30;;;4.88;;
79414;SDS011;68864;44.972;19.612;2023-05-27T00:52:29;7.00;;;6.22;;
79414;SDS011;68864;44.972;19.612;2023-05-27T00:54:56;7.32;;;5.35;;
79414;SDS011;68864;44.972;19.612;2023-05-27T00:57:23;5.63;;;5.03;;
79414;SDS011;68864;44.972;19.612;2023-05-27T00:59:52;6.72;;;5.75;;
79414;SDS011;68864;44.972;19.612;2023-05-27T01:02:19;5.45;;;4.93;;
79414;SDS011;68864;44.972;19.612;2023-05-27T01:04:47;7.32;;;6.30;;
79414;SDS011;68864;44.972;19.612;2023-05-27T01:07:15;7.38;;;5.60;;
79414;SDS011;68864;44.972;19.612;2023-05-27T01:09:47;4.53;;;3.80;;
79414;SDS011;68864;44.972;19.612;2023-05-27T01:12:21;6.43;;;5.68;;
79414;SDS011;68864;44.972;19.612;2023-05-27T01:14:55;6.32;;;4.82;;
79414;SDS011;68864;44.972;19.612;2023-05-27T01:17:24;6.20;;;3.95;;
79414;SDS011;68864;44.972;19.612;2023-05-27T01:19:53;6.10;;;4.13;;
79414;SDS011;68864;44.972;19.612;2023-05-27T01:22:26;5.05;;;2.92;;
79414;SDS011;68864;44.972;19.612;2023-05-27T01:24:54;6.18;;;4.53;;
79414;SDS011;68864;44.972;19.612;2023-05-27T01:27:21;6.03;;;5.20;;
79414;SDS011;68864;44.972;19.612;2023-05-27T01:29:50;7.53;;;4.57;;
79414;SDS011;68864;44.972;19.612;2023-05-27T01:32:18;5.28;;;4.32;;
79414;SDS011;68864;44.972;19.612;2023-05-27T01:34:59;5.38;;;4.03;;
79414;SDS011;68864;44.972;19.612;2023-05-27T01:37:32;6.60;;;4.72;;
79414;SDS011;68864;44.972;19.612;2023-05-27T01:40:04;7.38;;;4.97;;
79414;SDS011;68864;44.972;19.612;2023-05-27T01:42:32;5.20;;;3.97;;
79414;SDS011;68864;44.972;19.612;2023-05-27T01:45:00;6.93;;;5.55;;
79414;SDS011;68864;44.972;19.612;2023-05-27T01:47:28;6.32;;;5.00;;
79414;SDS011;68864;44.972;19.612;2023-05-27T01:49:56;4.10;;;1.40;;
79414;SDS011;68864;44.972;19.612;2023-05-27T01:52:23;6.10;;;4.93;;
79414;SDS011;68864;44.972;19.612;2023-05-27T01:54:51;6.85;;;5.70;;
79414;SDS011;68864;44.972;19.612;2023-05-27T01:57:18;5.88;;;4.22;;
79414;SDS011;68864;44.972;19.612;2023-05-27T01:59:45;8.23;;;5.90;;
79414;SDS011;68864;44.972;19.612;2023-05-27T02:02:12;7.80;;;6.60;;
79414;SDS011;68864;44.972;19.612;2023-05-27T02:04:39;9.75;;;6.32;;
79414;SDS011;68864;44.972;19.612;2023-05-27T02:07:05;6.63;;;5.80;;
79414;SDS011;68864;44.972;19.612;2023-05-27T02:09:32;6.05;;;4.75;;
79414;SDS011;68864;44.972;19.612;2023-05-27T02:12:00;6.82;;;5.95;;
79414;SDS011;68864;44.972;19.612;2023-05-27T02:14:27;15.30;;;5.32;;
79414;SDS011;68864;44.972;19.612;2023-05-27T02:16:54;8.60;;;4.78;;
79414;SDS011;68864;44.972;19.612;2023-05-27T02:19:20;8.10;;;5.78;;
79414;SDS011;68864;44.972;19.612;2023-05-27T02:21:47;7.38;;;5.45;;
79414;SDS011;68864;44.972;19.612;2023-05-27T02:24:14;6.85;;;5.70;;
79414;SDS011;68864;44.972;19.612;2023-05-27T02:26:41;6.82;;;6.20;;
79414;SDS011;68864;44.972;19.612;2023-05-27T02:29:09;8.15;;;2.90;;
79414;SDS011;68864;44.972;19.612;2023-05-27T02:31:35;7.10;;;5.13;;
79414;SDS011;68864;44.972;19.612;2023-05-27T02:34:02;5.75;;;2.38;;
79414;SDS011;68864;44.972;19.612;2023-05-27T02:36:29;7.18;;;5.22;;
79414;SDS011;68864;44.972;19.612;2023-05-27T02:38:56;9.55;;;7.72;;
79414;SDS011;68864;44.972;19.612;2023-05-27T02:41:22;8.10;;;5.47;;
79414;SDS011;68864;44.972;19.612;2023-05-27T02:43:49;6.43;;;5.47;;
79414;SDS011;68864;44.972;19.612;2023-05-27T02:46:17;8.00;;;4.80;;
79414;SDS011;68864;44.972;19.612;2023-05-27T02:48:44;6.68;;;4.80;;
79414;SDS011;68864;44.972;19.612;2023-05-27T02:51:11;9.77;;;6.05;;
79414;SDS011;68864;44.972;19.612;2023-05-27T02:53:37;8.90;;;7.57;;
79414;SDS011;68864;44.972;19.612;2023-05-27T02:56:04;7.90;;;6.38;;
79414;SDS011;68864;44.972;19.612;2023-05-27T02:58:31;10.98;;;6.97;;
79414;SDS011;68864;44.972;19.612;2023-05-27T03:00:58;10.13;;;7.80;;
79414;SDS011;68864;44.972;19.612;2023-05-27T03:03:26;8.00;;;6.07;;
79414;SDS011;68864;44.972;19.612;2023-05-27T03:05:54;9.50;;;5.93;;
79414;SDS011;68864;44.972;19.612;2023-05-27T03:08:21;6.45;;;5.78;;
79414;SDS011;68864;44.972;19.612;2023-05-27T03:10:47;6.18;;;3.90;;
79414;SDS011;68864;44.972;19.612;2023-05-27T03:13:14;8.65;;;6.25;;
79414;SDS011;68864;44.972;19.612;2023-05-27T03:15:41;8.32;;;6.60;;
79414;SDS011;68864;44.972;19.612;2023-05-27T03:18:08;11.30;;;7.38;;
79414;SDS011;68864;44.972;19.612;2023-05-27T03:23:03;6.10;;;2.72;;
79414;SDS011;68864;44.972;19.612;2023-05-27T03:25:30;9.38;;;7.15;;
79414;SDS011;68864;44.972;19.612;2023-05-27T03:27:58;7.95;;;3.85;;
79414;SDS011;68864;44.972;19.612;2023-05-27T03:30:25;9.88;;;8.10;;
79414;SDS011;68864;44.972;19.612;2023-05-27T03:32:52;13.13;;;10.32;;
79414;SDS011;68864;44.972;19.612;2023-05-27T03:35:18;8.52;;;6.55;;
79414;SDS011;68864;44.972;19.612;2023-05-27T03:37:46;12.55;;;11.25;;
79414;SDS011;68864;44.972;19.612;2023-05-27T03:40:13;9.88;;;7.47;;
79414;SDS011;68864;44.972;19.612;2023-05-27T03:42:40;11.68;;;8.43;;
79414;SDS011;68864;44.972;19.612;2023-05-27T03:45:07;14.30;;;10.90;;
79414;SDS011;68864;44.972;19.612;2023-05-27T03:47:34;12.85;;;7.35;;
79414;SDS011;68864;44.972;19.612;2023-05-27T03:50:01;8.60;;;7.70;;
79414;SDS011;68864;44.972;19.612;2023-05-27T03:52:28;11.93;;;8.93;;
79414;SDS011;68864;44.972;19.612;2023-05-27T03:54:56;9.38;;;7.05;;
79414;SDS011;68864;44.972;19.612;2023-05-27T03:57:23;11.40;;;9.32;;
79414;SDS011;68864;44.972;19.612;2023-05-27T03:59:50;13.80;;;8.75;;
79414;SDS011;68864;44.972;19.612;2023-05-27T04:02:16;7.40;;;3.90;;
79414;SDS011;68864;44.972;19.612;2023-05-27T04:04:43;8.40;;;6.68;;
79414;SDS011;68864;44.972;19.612;2023-05-27T04:07:11;9.60;;;6.32;;
79414;SDS011;68864;44.972;19.612;2023-05-27T04:09:38;11.73;;;8.98;;
79414;SDS011;68864;44.972;19.612;2023-05-27T04:12:07;12.90;;;8.18;;
79414;SDS011;68864;44.972;19.612;2023-05-27T04:14:34;10.43;;;8.35;;
79414;SDS011;68864;44.972;19.612;2023-05-27T04:17:01;10.65;;;7.43;;
79414;SDS011;68864;44.972;19.612;2023-05-27T04:19:28;11.98;;;10.10;;
79414;SDS011;68864;44.972;19.612;2023-05-27T04:21:57;11.55;;;9.10;;
79414;SDS011;68864;44.972;19.612;2023-05-27T04:24:24;17.17;;;10.95;;
79414;SDS011;68864;44.972;19.612;2023-05-27T04:26:51;14.48;;;9.25;;
79414;SDS011;68864;44.972;19.612;2023-05-27T04:29:19;15.35;;;12.07;;
79414;SDS011;68864;44.972;19.612;2023-05-27T04:31:47;12.50;;;9.70;;
79414;SDS011;68864;44.972;19.612;2023-05-27T04:34:15;14.70;;;10.93;;
79414;SDS011;68864;44.972;19.612;2023-05-27T04:36:42;16.63;;;12.82;;
79414;SDS011;68864;44.972;19.612;2023-05-27T04:39:09;10.75;;;8.77;;
79414;SDS011;68864;44.972;19.612;2023-05-27T04:41:36;12.68;;;9.75;;
79414;SDS011;68864;44.972;19.612;2023-05-27T04:44:04;12.20;;;8.45;;
79414;SDS011;68864;44.972;19.612;2023-05-27T04:46:33;22.20;;;7.20;;
79414;SDS011;68864;44.972;19.612;2023-05-27T04:48:59;8.32;;;7.30;;
79414;SDS011;68864;44.972;19.612;2023-05-27T04:51:26;10.05;;;9.05;;
79414;SDS011;68864;44.972;19.612;2023-05-27T04:56:21;14.50;;;11.10;;
79414;SDS011;68864;44.972;19.612;2023-05-27T04:58:48;18.98;;;14.75;;
79414;SDS011;68864;44.972;19.612;2023-05-27T05:01:15;24.45;;;20.27;;
79414;SDS011;68864;44.972;19.612;2023-05-27T05:03:48;29.05;;;20.42;;
79414;SDS011;68864;44.972;19.612;2023-05-27T05:06:27;24.60;;;18.48;;
79414;SDS011;68864;44.972;19.612;2023-05-27T05:08:54;20.30;;;16.70;;
79414;SDS011;68864;44.972;19.612;2023-05-27T05:13:48;19.23;;;14.60;;
79414;SDS011;68864;44.972;19.612;2023-05-27T05:16:14;38.90;;;21.63;;
79414;SDS011;68864;44.972;19.612;2023-05-27T05:18:41;23.38;;;16.23;;
79414;SDS011;68864;44.972;19.612;2023-05-27T05:21:09;19.02;;;12.18;;
79414;SDS011;68864;44.972;19.612;2023-05-27T05:23:36;16.42;;;12.25;;
79414;SDS011;68864;44.972;19.612;2023-05-27T05:26:05;14.77;;;10.70;;
79414;SDS011;68864;44.972;19.612;2023-05-27T05:28:32;10.82;;;8.18;;
79414;SDS011;68864;44.972;19.612;2023-05-27T05:31:00;12.65;;;8.07;;
79414;SDS011;68864;44.972;19.612;2023-05-27T05:33:27;12.75;;;9.00;;
79414;SDS011;68864;44.972;19.612;2023-05-27T05:35:54;10.82;;;8.60;;
79414;SDS011;68864;44.972;19.612;2023-05-27T05:38:22;11.07;;;8.90;;
79414;SDS011;68864;44.972;19.612;2023-05-27T05:40:49;12.50;;;9.10;;
79414;SDS011;68864;44.972;19.612;2023-05-27T05:43:17;42.33;;;27.45;;
79414;SDS011;68864;44.972;19.612;2023-05-27T05:45:45;50.38;;;30.33;;
79414;SDS011;68864;44.972;19.612;2023-05-27T05:48:12;21.77;;;15.55;;
79414;SDS011;68864;44.972;19.612;2023-05-27T05:50:38;26.90;;;17.55;;
79414;SDS011;68864;44.972;19.612;2023-05-27T05:53:05;18.95;;;13.68;;
79414;SDS011;68864;44.972;19.612;2023-05-27T05:55:33;14.25;;;8.75;;
79414;SDS011;68864;44.972;19.612;2023-05-27T05:58:00;18.50;;;11.68;;
79414;SDS011;68864;44.972;19.612;2023-05-27T06:00:27;16.27;;;10.35;;
79414;SDS011;68864;44.972;19.612;2023-05-27T06:02:54;13.38;;;10.50;;
79414;SDS011;68864;44.972;19.612;2023-05-27T06:05:21;16.67;;;10.25;;
79414;SDS011;68864;44.972;19.612;2023-05-27T06:07:51;14.10;;;9.77;;
79414;SDS011;68864;44.972;19.612;2023-05-27T06:10:17;13.80;;;8.95;;
79414;SDS011;68864;44.972;19.612;2023-05-27T06:12:46;23.42;;;14.93;;
79414;SDS011;68864;44.972;19.612;2023-05-27T06:15:13;28.00;;;17.83;;
79414;SDS011;68864;44.972;19.612;2023-05-27T06:17:40;22.77;;;16.48;;
79414;SDS011;68864;44.972;19.612;2023-05-27T06:22:34;21.95;;;14.07;;
79414;SDS011;68864;44.972;19.612;2023-05-27T06:25:00;17.77;;;10.88;;
79414;SDS011;68864;44.972;19.612;2023-05-27T06:27:27;20.13;;;13.77;;
79414;SDS011;68864;44.972;19.612;2023-05-27T06:32:22;13.88;;;8.23;;
79414;SDS011;68864;44.972;19.612;2023-05-27T06:34:49;14.93;;;10.68;;
79414;SDS011;68864;44.972;19.612;2023-05-27T06:37:16;25.17;;;18.23;;
79414;SDS011;68864;44.972;19.612;2023-05-27T06:39:43;36.38;;;21.85;;
79414;SDS011;68864;44.972;19.612;2023-05-27T06:42:09;38.63;;;24.00;;
79414;SDS011;68864;44.972;19.612;2023-05-27T06:44:36;26.17;;;18.17;;
79414;SDS011;68864;44.972;19.612;2023-05-27T06:47:04;28.95;;;20.38;;
79414;SDS011;68864;44.972;19.612;2023-05-27T06:49:31;21.17;;;14.90;;
79414;SDS011;68864;44.972;19.612;2023-05-27T06:51:58;20.85;;;16.20;;
79414;SDS011;68864;44.972;19.612;2023-05-27T06:54:25;21.83;;;16.08;;
79414;SDS011;68864;44.972;19.612;2023-05-27T06:56:52;21.48;;;15.68;;
79414;SDS011;68864;44.972;19.612;2023-05-27T06:59:18;14.07;;;12.30;;
79414;SDS011;68864;44.972;19.612;2023-05-27T07:01:45;14.18;;;11.68;;
79414;SDS011;68864;44.972;19.612;2023-05-27T07:04:13;13.95;;;11.02;;
79414;SDS011;68864;44.972;19.612;2023-05-27T07:06:42;15.85;;;11.27;;
79414;SDS011;68864;44.972;19.612;2023-05-27T07:09:09;17.90;;;12.57;;
79414;SDS011;68864;44.972;19.612;2023-05-27T07:11:36;12.13;;;10.77;;
79414;SDS011;68864;44.972;19.612;2023-05-27T07:14:03;29.58;;;21.02;;
79414;SDS011;68864;44.972;19.612;2023-05-27T07:16:29;42.17;;;29.55;;
79414;SDS011;68864;44.972;19.612;2023-05-27T07:18:56;28.55;;;18.92;;
79414;SDS011;68864;44.972;19.612;2023-05-27T07:21:24;16.35;;;14.05;;
79414;SDS011;68864;44.972;19.612;2023-05-27T07:23:51;14.68;;;13.15;;
79414;SDS011;68864;44.972;19.612;2023-05-27T07:26:18;17.25;;;12.40;;
79414;SDS011;68864;44.972;19.612;2023-05-27T07:28:45;14.55;;;9.35;;
79414;SDS011;68864;44.972;19.612;2023-05-27T07:31:12;20.30;;;13.48;;
79414;SDS011;68864;44.972;19.612;2023-05-27T07:33:39;18.05;;;12.43;;
79414;SDS011;68864;44.972;19.612;2023-05-27T07:38:34;23.42;;;14.13;;
79414;SDS011;68864;44.972;19.612;2023-05-27T07:41:00;15.23;;;11.15;;
79414;SDS011;68864;44.972;19.612;2023-05-27T07:45:54;15.90;;;11.05;;
79414;SDS011;68864;44.972;19.612;2023-05-27T07:48:20;14.25;;;10.85;;
79414;SDS011;68864;44.972;19.612;2023-05-27T07:50:47;13.63;;;10.43;;
79414;SDS011;68864;44.972;19.612;2023-05-27T07:53:14;15.98;;;12.63;;
79414;SDS011;68864;44.972;19.612;2023-05-27T07:58:09;14.45;;;12.77;;
79414;SDS011;68864;44.972;19.612;2023-05-27T08:03:02;18.30;;;12.90;;
79414;SDS011;68864;44.972;19.612;2023-05-27T08:07:55;18.17;;;14.68;;
79414;SDS011;68864;44.972;19.612;2023-05-27T08:10:22;17.33;;;15.57;;
79414;SDS011;68864;44.972;19.612;2023-05-27T08:12:50;17.30;;;14.25;;
79414;SDS011;68864;44.972;19.612;2023-05-27T08:15:17;15.30;;;12.00;;
79414;SDS011;68864;44.972;19.612;2023-05-27T08:17:44;21.95;;;14.60;;
79414;SDS011;68864;44.972;19.612;2023-05-27T08:20:10;16.10;;;14.40;;
79414;SDS011;68864;44.972;19.612;2023-05-27T08:22:37;14.80;;;11.50;;
79414;SDS011;68864;44.972;19.612;2023-05-27T08:25:04;15.55;;;13.93;;
79414;SDS011;68864;44.972;19.612;2023-05-27T08:27:44;18.80;;;14.25;;
79414;SDS011;68864;44.972;19.612;2023-05-27T08:30:14;26.52;;;19.05;;
79414;SDS011;68864;44.972;19.612;2023-05-27T08:32:41;32.85;;;25.45;;
79414;SDS011;68864;44.972;19.612;2023-05-27T08:35:08;23.00;;;18.95;;
79414;SDS011;68864;44.972;19.612;2023-05-27T08:37:35;23.17;;;18.75;;
79414;SDS011;68864;44.972;19.612;2023-05-27T08:42:30;31.70;;;24.50;;
79414;SDS011;68864;44.972;19.612;2023-05-27T08:44:57;18.67;;;14.52;;
79414;SDS011;68864;44.972;19.612;2023-05-27T08:47:26;15.07;;;13.50;;
79414;SDS011;68864;44.972;19.612;2023-05-27T08:49:54;13.13;;;11.73;;
79414;SDS011;68864;44.972;19.612;2023-05-27T08:52:22;14.85;;;13.30;;
79414;SDS011;68864;44.972;19.612;2023-05-27T08:54:53;16.92;;;13.43;;
79414;SDS011;68864;44.972;19.612;2023-05-27T08:57:20;15.38;;;13.88;;
79414;SDS011;68864;44.972;19.612;2023-05-27T08:59:49;17.40;;;13.80;;
79414;SDS011;68864;44.972;19.612;2023-05-27T09:02:16;15.10;;;13.55;;
79414;SDS011;68864;44.972;19.612;2023-05-27T09:04:47;18.02;;;14.93;;
79414;SDS011;68864;44.972;19.612;2023-05-27T09:07:15;16.45;;;14.75;;
79414;SDS011;68864;44.972;19.612;2023-05-27T09:09:42;14.38;;;12.90;;
79414;SDS011;68864;44.972;19.612;2023-05-27T09:12:21;14.48;;;12.85;;
79414;SDS011;68864;44.972;19.612;2023-05-27T09:14:49;15.88;;;14.35;;
79414;SDS011;68864;44.972;19.612;2023-05-27T09:17:15;16.40;;;11.95;;
79414;SDS011;68864;44.972;19.612;2023-05-27T09:22:18;16.08;;;12.23;;
79414;SDS011;68864;44.972;19.612;2023-05-27T09:24:46;14.43;;;11.75;;
79414;SDS011;68864;44.972;19.612;2023-05-27T09:29:39;15.90;;;14.30;;
79414;SDS011;68864;44.972;19.612;2023-05-27T09:32:06;16.17;;;13.90;;
79414;SDS011;68864;44.972;19.612;2023-05-27T09:34:37;14.52;;;12.98;;
79414;SDS011;68864;44.972;19.612;2023-05-27T09:37:04;15.98;;;12.38;;
79414;SDS011;68864;44.972;19.612;2023-05-27T09:42:00;12.55;;;11.25;;
79414;SDS011;68864;44.972;19.612;2023-05-27T09:46:54;14.63;;;13.13;;
79414;SDS011;68864;44.972;19.612;2023-05-27T09:49:22;14.18;;;11.30;;
79414;SDS011;68864;44.972;19.612;2023-05-27T09:51:52;13.23;;;11.57;;
79414;SDS011;68864;44.972;19.612;2023-05-27T09:54:22;11.77;;;10.55;;
79414;SDS011;68864;44.972;19.612;2023-05-27T09:56:51;17.13;;;13.23;;
79414;SDS011;68864;44.972;19.612;2023-05-27T09:59:18;14.82;;;11.25;;
79414;SDS011;68864;44.972;19.612;2023-05-27T10:01:45;13.35;;;11.15;;
79414;SDS011;68864;44.972;19.612;2023-05-27T10:04:13;10.90;;;9.80;;
79414;SDS011;68864;44.972;19.612;2023-05-27T10:06:41;13.13;;;9.77;;
79414;SDS011;68864;44.972;19.612;2023-05-27T10:09:08;11.98;;;10.77;;
79414;SDS011;68864;44.972;19.612;2023-05-27T10:11:35;11.57;;;10.35;;
79414;SDS011;68864;44.972;19.612;2023-05-27T10:14:05;11.27;;;10.00;;
79414;SDS011;68864;44.972;19.612;2023-05-27T10:16:32;14.68;;;13.23;;
79414;SDS011;68864;44.972;19.612;2023-05-27T10:19:01;16.48;;;12.23;;
79414;SDS011;68864;44.972;19.612;2023-05-27T10:21:28;12.20;;;11.02;;
79414;SDS011;68864;44.972;19.612;2023-05-27T10:23:57;12.40;;;9.25;;
79414;SDS011;68864;44.972;19.612;2023-05-27T10:26:32;11.00;;;9.70;;
79414;SDS011;68864;44.972;19.612;2023-05-27T10:29:07;12.70;;;11.40;;
79414;SDS011;68864;44.972;19.612;2023-05-27T10:31:34;11.68;;;10.50;;
79414;SDS011;68864;44.972;19.612;2023-05-27T10:34:03;10.15;;;9.13;;
79414;SDS011;68864;44.972;19.612;2023-05-27T10:36:31;13.73;;;10.68;;
79414;SDS011;68864;44.972;19.612;2023-05-27T10:39:00;10.73;;;9.07;;
79414;SDS011;68864;44.972;19.612;2023-05-27T10:41:28;11.98;;;10.88;;
79414;SDS011;68864;44.972;19.612;2023-05-27T10:44:04;11.25;;;9.68;;
79414;SDS011;68864;44.972;19.612;2023-05-27T10:46:38;11.35;;;10.07;;
79414;SDS011;68864;44.972;19.612;2023-05-27T10:49:10;11.32;;;9.60;;
79414;SDS011;68864;44.972;19.612;2023-05-27T10:51:37;9.88;;;6.38;;
79414;SDS011;68864;44.972;19.612;2023-05-27T10:54:05;11.52;;;9.82;;
79414;SDS011;68864;44.972;19.612;2023-05-27T10:56:33;13.23;;;9.70;;
79414;SDS011;68864;44.972;19.612;2023-05-27T10:59:00;10.98;;;8.85;;
79414;SDS011;68864;44.972;19.612;2023-05-27T11:01:28;12.88;;;11.50;;
79414;SDS011;68864;44.972;19.612;2023-05-27T11:03:59;13.85;;;11.30;;
79414;SDS011;68864;44.972;19.612;2023-05-27T11:06:26;9.82;;;8.88;;
79414;SDS011;68864;44.972;19.612;2023-05-27T11:08:54;10.90;;;9.70;;
79414;SDS011;68864;44.972;19.612;2023-05-27T11:13:48;9.88;;;8.75;;
79414;SDS011;68864;44.972;19.612;2023-05-27T11:18:42;13.73;;;10.13;;
79414;SDS011;68864;44.972;19.612;2023-05-27T11:21:11;10.55;;;9.35;;
79414;SDS011;68864;44.972;19.612;2023-05-27T11:23:41;11.52;;;10.30;;
79414;SDS011;68864;44.972;19.612;2023-05-27T11:26:12;10.85;;;9.75;;
79414;SDS011;68864;44.972;19.612;2023-05-27T11:28:47;10.48;;;8.10;;
79414;SDS011;68864;44.972;19.612;2023-05-27T11:31:15;9.90;;;8.73;;
79414;SDS011;68864;44.972;19.612;2023-05-27T11:33:42;12.20;;;9.52;;
79414;SDS011;68864;44.972;19.612;2023-05-27T11:36:12;10.77;;;9.30;;
79414;SDS011;68864;44.972;19.612;2023-05-27T11:38:50;11.30;;;9.70;;
79414;SDS011;68864;44.972;19.612;2023-05-27T11:41:18;14.27;;;12.63;;
79414;SDS011;68864;44.972;19.612;2023-05-27T11:43:46;10.18;;;8.68;;
79414;SDS011;68864;44.972;19.612;2023-05-27T11:46:14;10.02;;;8.27;;
79414;SDS011;68864;44.972;19.612;2023-05-27T11:48:41;9.63;;;8.65;;
79414;SDS011;68864;44.972;19.612;2023-05-27T11:51:08;12.10;;;10.38;;
79414;SDS011;68864;44.972;19.612;2023-05-27T11:53:36;8.25;;;5.07;;
79414;SDS011;68864;44.972;19.612;2023-05-27T11:56:06;9.65;;;8.73;;
79414;SDS011;68864;44.972;19.612;2023-05-27T11:58:32;10.38;;;9.38;;
79414;SDS011;68864;44.972;19.612;2023-05-27T12:00:59;11.15;;;9.27;;
79414;SDS011;68864;44.972;19.612;2023-05-27T12:03:26;9.52;;;8.60;;
79414;SDS011;68864;44.972;19.612;2023-05-27T12:05:53;11.93;;;10.02;;
79414;SDS011;68864;44.972;19.612;2023-05-27T12:10:47;11.95;;;9.95;;
79414;SDS011;68864;44.972;19.612;2023-05-27T12:13:18;12.93;;;11.30;;
79414;SDS011;68864;44.972;19.612;2023-05-27T12:15:46;13.27;;;9.20;;
79414;SDS011;68864;44.972;19.612;2023-05-27T12:18:16;9.57;;;6.80;;
79414;SDS011;68864;44.972;19.612;2023-05-27T12:20:43;9.73;;;8.73;;
79414;SDS011;68864;44.972;19.612;2023-05-27T12:23:10;10.55;;;7.07;;
79414;SDS011;68864;44.972;19.612;2023-05-27T12:25:37;11.40;;;7.97;;
79414;SDS011;68864;44.972;19.612;2023-05-27T12:28:07;11.48;;;6.88;;
79414;SDS011;68864;44.972;19.612;2023-05-27T12:30:35;10.23;;;7.15;;
79414;SDS011;68864;44.972;19.612;2023-05-27T12:33:02;8.95;;;6.63;;
79414;SDS011;68864;44.972;19.612;2023-05-27T12:35:30;14.25;;;8.40;;
79414;SDS011;68864;44.972;19.612;2023-05-27T12:37:57;10.13;;;4.25;;
79414;SDS011;68864;44.972;19.612;2023-05-27T12:40:24;18.52;;;12.43;;
79414;SDS011;68864;44.972;19.612;2023-05-27T12:42:51;19.15;;;13.25;;
79414;SDS011;68864;44.972;19.612;2023-05-27T12:45:19;15.98;;;11.88;;
79414;SDS011;68864;44.972;19.612;2023-05-27T12:47:47;18.25;;;13.00;;
79414;SDS011;68864;44.972;19.612;2023-05-27T12:50:14;16.95;;;12.55;;
79414;SDS011;68864;44.972;19.612;2023-05-27T12:52:41;17.50;;;10.43;;
79414;SDS011;68864;44.972;19.612;2023-05-27T12:55:11;13.95;;;10.65;;
79414;SDS011;68864;44.972;19.612;2023-05-27T12:57:38;13.48;;;10.18;;
79414;SDS011;68864;44.972;19.612;2023-05-27T13:00:06;15.82;;;7.50;;
79414;SDS011;68864;44.972;19.612;2023-05-27T13:02:35;16.25;;;12.43;;
79414;SDS011;68864;44.972;19.612;2023-05-27T13:05:03;20.80;;;13.75;;
79414;SDS011;68864;44.972;19.612;2023-05-27T13:07:31;16.98;;;12.18;;
79414;SDS011;68864;44.972;19.612;2023-05-27T13:12:27;17.73;;;12.63;;
79414;SDS011;68864;44.972;19.612;2023-05-27T13:14:54;12.32;;;9.88;;
79414;SDS011;68864;44.972;19.612;2023-05-27T13:17:22;12.35;;;10.10;;
79414;SDS011;68864;44.972;19.612;2023-05-27T13:22:16;13.52;;;11.60;;
79414;SDS011;68864;44.972;19.612;2023-05-27T13:24:43;14.30;;;11.90;;
79414;SDS011;68864;44.972;19.612;2023-05-27T13:27:10;17.92;;;14.35;;
79414;SDS011;68864;44.972;19.612;2023-05-27T13:29:37;18.80;;;13.85;;
79414;SDS011;68864;44.972;19.612;2023-05-27T13:32:06;14.75;;;12.60;;
79414;SDS011;68864;44.972;19.612;2023-05-27T13:34:33;14.48;;;9.25;;
79414;SDS011;68864;44.972;19.612;2023-05-27T13:37:01;16.65;;;13.30;;
79414;SDS011;68864;44.972;19.612;2023-05-27T13:39:28;21.25;;;15.00;;
79414;SDS011;68864;44.972;19.612;2023-05-27T13:41:56;15.35;;;13.65;;
79414;SDS011;68864;44.972;19.612;2023-05-27T13:44:23;14.63;;;11.98;;
79414;SDS011;68864;44.972;19.612;2023-05-27T13:49:17;12.48;;;11.25;;
79414;SDS011;68864;44.972;19.612;2023-05-27T13:51:44;13.32;;;11.95;;
79414;SDS011;68864;44.972;19.612;2023-05-27T13:54:13;14.73;;;12.13;;
79414;SDS011;68864;44.972;19.612;2023-05-27T13:56:39;15.60;;;12.60;;
79414;SDS011;68864;44.972;19.612;2023-05-27T13:59:06;16.58;;;12.98;;
79414;SDS011;68864;44.972;19.612;2023-05-27T14:01:34;14.77;;;12.00;;
79414;SDS011;68864;44.972;19.612;2023-05-27T14:04:01;15.10;;;13.32;;
79414;SDS011;68864;44.972;19.612;2023-05-27T14:06:28;14.93;;;13.40;;
79414;SDS011;68864;44.972;19.612;2023-05-27T14:08:56;15.57;;;13.10;;
79414;SDS011;68864;44.972;19.612;2023-05-27T14:11:24;18.67;;;15.80;;
79414;SDS011;68864;44.972;19.612;2023-05-27T14:13:51;21.02;;;16.83;;
79414;SDS011;68864;44.972;19.612;2023-05-27T14:16:20;16.75;;;13.73;;
79414;SDS011;68864;44.972;19.612;2023-05-27T14:18:49;15.27;;;13.07;;
79414;SDS011;68864;44.972;19.612;2023-05-27T14:21:15;14.75;;;12.10;;
79414;SDS011;68864;44.972;19.612;2023-05-27T14:23:43;14.73;;;12.23;;
79414;SDS011;68864;44.972;19.612;2023-05-27T14:26:10;13.63;;;10.93;;
79414;SDS011;68864;44.972;19.612;2023-05-27T14:28:39;13.68;;;12.05;;
79414;SDS011;68864;44.972;19.612;2023-05-27T14:31:06;10.60;;;7.53;;
79414;SDS011;68864;44.972;19.612;2023-05-27T14:33:33;9.25;;;5.05;;
79414;SDS011;68864;44.972;19.612;2023-05-27T14:35:59;10.73;;;9.00;;
79414;SDS011;68864;44.972;19.612;2023-05-27T14:38:26;19.48;;;14.95;;
79414;SDS011;68864;44.972;19.612;2023-05-27T14:40:53;14.77;;;11.60;;
79414;SDS011;68864;44.972;19.612;2023-05-27T14:43:21;10.82;;;9.27;;
79414;SDS011;68864;44.972;19.612;2023-05-27T14:45:49;12.90;;;10.48;;
79414;SDS011;68864;44.972;19.612;2023-05-27T14:48:15;11.75;;;9.63;;
79414;SDS011;68864;44.972;19.612;2023-05-27T14:50:42;14.30;;;9.65;;
79414;SDS011;68864;44.972;19.612;2023-05-27T14:53:10;13.45;;;7.63;;
79414;SDS011;68864;44.972;19.612;2023-05-27T14:55:36;8.65;;;7.75;;
79414;SDS011;68864;44.972;19.612;2023-05-27T14:58:03;10.52;;;8.27;;
79414;SDS011;68864;44.972;19.612;2023-05-27T15:00:31;10.73;;;9.15;;
79414;SDS011;68864;44.972;19.612;2023-05-27T15:02:59;6.47;;;5.72;;
79414;SDS011;68864;44.972;19.612;2023-05-27T15:05:26;9.77;;;7.63;;
79414;SDS011;68864;44.972;19.612;2023-05-27T15:07:53;8.10;;;6.22;;
79414;SDS011;68864;44.972;19.612;2023-05-27T15:10:20;10.13;;;8.65;;
79414;SDS011;68864;44.972;19.612;2023-05-27T15:12:46;9.15;;;6.90;;